sensor_id;sensor_type;location;lat;lon;timestamp;temperature;humidity
28654;DHT22;24320;56.980;24.336;2023-05-07T00:00:03;-1.70;99.90
28654;DHT22;24320;56.980;24.336;2023-05-07T00:02:30;-1.80;99.90
28654;DHT22;24320;56.980;24.336;2023-05-07T00:04:57;-1.70;99.90
28654;DHT22;24320;56.980;24.336;2023-05-07T00:07:24;-1.70;99.90
28654;DHT22;24320;56.980;24.336;2023-05-07T00:09:51;-1.70;99.90
28654;DHT22;24320;56.980;24.336;2023-05-07T00:12:18;-1.70;99.90
28654;DHT22;24320;56.980;24.336;2023-05-07T00:14:45;-1.70;99.90
28654;DHT22;24320;56.980;24.336;2023-05-07T00:17:13;-1.60;99.90
28654;DHT22;24320;56.980;24.336;2023-05-07T00:19:39;-1.60;99.90
28654;DHT22;24320;56.980;24.336;2023-05-07T00:22:07;-1.60;99.90
28654;DHT22;24320;56.980;24.336;2023-05-07T00:24:34;-1.60;99.90
28654;DHT22;24320;56.980;24.336;2023-05-07T00:29:33;-1.60;99.90
28654;DHT22;24320;56.980;24.336;2023-05-07T00:32:00;-1.70;99.90
28654;DHT22;24320;56.980;24.336;2023-05-07T00:34:27;-1.70;99.90
28654;DHT22;24320;56.980;24.336;2023-05-07T00:37:01;-1.80;99.90
28654;DHT22;24320;56.980;24.336;2023-05-07T00:39:31;-1.80;99.90
28654;DHT22;24320;56.980;24.336;2023-05-07T00:41:58;-1.80;99.90
28654;DHT22;24320;56.980;24.336;2023-05-07T00:44:26;-1.80;99.90
28654;DHT22;24320;56.980;24.336;2023-05-07T00:46:53;-1.80;99.90
28654;DHT22;24320;56.980;24.336;2023-05-07T00:49:21;-1.80;99.90
28654;DHT22;24320;56.980;24.336;2023-05-07T00:51:48;-1.80;99.90
28654;DHT22;24320;56.980;24.336;2023-05-07T00:54:16;-1.80;99.90
28654;DHT22;24320;56.980;24.336;2023-05-07T00:56:44;-1.90;99.90
28654;DHT22;24320;56.980;24.336;2023-05-07T00:59:11;-1.90;99.90
28654;DHT22;24320;56.980;24.336;2023-05-07T01:01:38;-2.00;99.90
28654;DHT22;24320;56.980;24.336;2023-05-07T01:04:05;-2.00;99.90
28654;DHT22;24320;56.980;24.336;2023-05-07T01:06:33;-2.00;99.90
28654;DHT22;24320;56.980;24.336;2023-05-07T01:09:01;-1.90;99.90
28654;DHT22;24320;56.980;24.336;2023-05-07T01:11:28;-1.90;99.90
28654;DHT22;24320;56.980;24.336;2023-05-07T01:13:56;-2.00;99.90
28654;DHT22;24320;56.980;24.336;2023-05-07T01:16:23;-1.90;99.90
28654;DHT22;24320;56.980;24.336;2023-05-07T01:18:50;-1.90;99.90
28654;DHT22;24320;56.980;24.336;2023-05-07T01:21:18;-1.90;99.90
28654;DHT22;24320;56.980;24.336;2023-05-07T01:23:45;-1.90;99.90
28654;DHT22;24320;56.980;24.336;2023-05-07T01:26:13;-1.90;99.90
28654;DHT22;24320;56.980;24.336;2023-05-07T01:28:40;-1.90;99.90
28654;DHT22;24320;56.980;24.336;2023-05-07T01:31:08;-1.90;99.90
28654;DHT22;24320;56.980;24.336;2023-05-07T01:33:36;-1.90;99.90
28654;DHT22;24320;56.980;24.336;2023-05-07T01:36:05;-1.80;99.90
28654;DHT22;24320;56.980;24.336;2023-05-07T01:38:33;-1.80;99.90
28654;DHT22;24320;56.980;24.336;2023-05-07T01:41:01;-1.80;99.90
28654;DHT22;24320;56.980;24.336;2023-05-07T01:43:30;-1.80;99.90
28654;DHT22;24320;56.980;24.336;2023-05-07T01:45:58;-1.80;99.90
28654;DHT22;24320;56.980;24.336;2023-05-07T01:48:25;-1.70;99.90
28654;DHT22;24320;56.980;24.336;2023-05-07T01:50:53;-1.80;99.90
28654;DHT22;24320;56.980;24.336;2023-05-07T01:53:21;-1.80;99.90
28654;DHT22;24320;56.980;24.336;2023-05-07T01:55:48;-1.80;99.90
28654;DHT22;24320;56.980;24.336;2023-05-07T01:58:14;-1.80;99.90
28654;DHT22;24320;56.980;24.336;2023-05-07T02:00:41;-1.80;99.90
28654;DHT22;24320;56.980;24.336;2023-05-07T02:03:09;-1.80;99.90
28654;DHT22;24320;56.980;24.336;2023-05-07T02:05:36;-1.80;99.90
28654;DHT22;24320;56.980;24.336;2023-05-07T02:08:03;-1.70;99.90
28654;DHT22;24320;56.980;24.336;2023-05-07T02:10:30;-1.70;99.90
28654;DHT22;24320;56.980;24.336;2023-05-07T02:12:57;-1.70;99.90
28654;DHT22;24320;56.980;24.336;2023-05-07T02:15:24;-1.70;99.90
28654;DHT22;24320;56.980;24.336;2023-05-07T02:18:06;-1.60;99.90
28654;DHT22;24320;56.980;24.336;2023-05-07T02:20:33;-1.60;99.90
28654;DHT22;24320;56.980;24.336;2023-05-07T02:23:00;-1.60;99.90
28654;DHT22;24320;56.980;24.336;2023-05-07T02:25:27;-1.60;99.90
28654;DHT22;24320;56.980;24.336;2023-05-07T02:27:54;-1.50;99.90
28654;DHT22;24320;56.980;24.336;2023-05-07T02:30:21;-1.50;99.90
28654;DHT22;24320;56.980;24.336;2023-05-07T02:32:48;-1.50;99.90
28654;DHT22;24320;56.980;24.336;2023-05-07T02:35:15;-1.50;99.90
28654;DHT22;24320;56.980;24.336;2023-05-07T02:37:42;-1.50;99.90
28654;DHT22;24320;56.980;24.336;2023-05-07T02:40:10;-1.50;99.90
28654;DHT22;24320;56.980;24.336;2023-05-07T02:42:38;-1.50;99.90
28654;DHT22;24320;56.980;24.336;2023-05-07T02:45:05;-1.40;99.90
28654;DHT22;24320;56.980;24.336;2023-05-07T02:47:32;-1.40;99.90
28654;DHT22;24320;56.980;24.336;2023-05-07T02:49:59;-1.30;99.90
28654;DHT22;24320;56.980;24.336;2023-05-07T02:52:27;-1.30;99.90
28654;DHT22;24320;56.980;24.336;2023-05-07T02:54:53;-1.20;99.90
28654;DHT22;24320;56.980;24.336;2023-05-07T02:57:20;-1.20;99.90
28654;DHT22;24320;56.980;24.336;2023-05-07T02:59:47;-1.10;99.90
28654;DHT22;24320;56.980;24.336;2023-05-07T03:02:14;-0.90;99.90
28654;DHT22;24320;56.980;24.336;2023-05-07T03:04:41;-0.60;99.90
28654;DHT22;24320;56.980;24.336;2023-05-07T03:07:08;0.20;99.90
28654;DHT22;24320;56.980;24.336;2023-05-07T03:09:35;1.30;99.90
28654;DHT22;24320;56.980;24.336;2023-05-07T03:12:02;2.40;99.90
28654;DHT22;24320;56.980;24.336;2023-05-07T03:14:29;3.50;99.90
28654;DHT22;24320;56.980;24.336;2023-05-07T03:16:56;4.40;99.90
28654;DHT22;24320;56.980;24.336;2023-05-07T03:19:23;5.20;99.90
28654;DHT22;24320;56.980;24.336;2023-05-07T03:21:50;6.00;99.90
28654;DHT22;24320;56.980;24.336;2023-05-07T03:24:17;6.80;99.90
28654;DHT22;24320;56.980;24.336;2023-05-07T03:26:44;7.60;99.90
28654;DHT22;24320;56.980;24.336;2023-05-07T03:29:11;8.10;99.90
28654;DHT22;24320;56.980;24.336;2023-05-07T03:31:38;8.30;97.80
28654;DHT22;24320;56.980;24.336;2023-05-07T03:34:05;8.30;97.20
28654;DHT22;24320;56.980;24.336;2023-05-07T03:36:32;8.40;98.00
28654;DHT22;24320;56.980;24.336;2023-05-07T03:38:59;8.70;97.00
28654;DHT22;24320;56.980;24.336;2023-05-07T03:41:26;8.90;95.30
28654;DHT22;24320;56.980;24.336;2023-05-07T03:43:53;9.00;93.20
28654;DHT22;24320;56.980;24.336;2023-05-07T03:46:20;8.90;92.70
28654;DHT22;24320;56.980;24.336;2023-05-07T03:48:47;8.80;92.00
28654;DHT22;24320;56.980;24.336;2023-05-07T03:51:14;8.60;91.40
28654;DHT22;24320;56.980;24.336;2023-05-07T03:53:41;8.40;91.70
28654;DHT22;24320;56.980;24.336;2023-05-07T03:56:08;8.40;92.50
28654;DHT22;24320;56.980;24.336;2023-05-07T03:58:35;8.60;92.00
28654;DHT22;24320;56.980;24.336;2023-05-07T04:01:02;8.90;91.40
28654;DHT22;24320;56.980;24.336;2023-05-07T04:03:30;9.10;88.80
28654;DHT22;24320;56.980;24.336;2023-05-07T04:05:57;9.10;87.80
28654;DHT22;24320;56.980;24.336;2023-05-07T04:08:24;9.20;88.30
28654;DHT22;24320;56.980;24.336;2023-05-07T04:10:58;9.40;83.60
28654;DHT22;24320;56.980;24.336;2023-05-07T04:13:27;9.30;83.10
28654;DHT22;24320;56.980;24.336;2023-05-07T04:15:55;9.30;81.10
28654;DHT22;24320;56.980;24.336;2023-05-07T04:18:22;9.30;85.90
28654;DHT22;24320;56.980;24.336;2023-05-07T04:20:49;9.50;83.50
28654;DHT22;24320;56.980;24.336;2023-05-07T04:23:16;9.70;83.80
28654;DHT22;24320;56.980;24.336;2023-05-07T04:25:43;9.90;80.30
28654;DHT22;24320;56.980;24.336;2023-05-07T04:28:11;9.90;79.40
28654;DHT22;24320;56.980;24.336;2023-05-07T04:30:38;9.90;79.80
28654;DHT22;24320;56.980;24.336;2023-05-07T04:33:05;10.00;78.00
28654;DHT22;24320;56.980;24.336;2023-05-07T04:35:33;10.10;77.10
28654;DHT22;24320;56.980;24.336;2023-05-07T04:38:00;10.10;76.70
28654;DHT22;24320;56.980;24.336;2023-05-07T04:40:28;10.30;77.10
28654;DHT22;24320;56.980;24.336;2023-05-07T04:42:55;10.70;77.80
28654;DHT22;24320;56.980;24.336;2023-05-07T04:45:22;11.00;73.00
28654;DHT22;24320;56.980;24.336;2023-05-07T04:47:49;11.10;72.60
28654;DHT22;24320;56.980;24.336;2023-05-07T04:50:16;11.30;71.10
28654;DHT22;24320;56.980;24.336;2023-05-07T04:52:46;11.60;71.60
28654;DHT22;24320;56.980;24.336;2023-05-07T04:55:13;11.90;70.10
28654;DHT22;24320;56.980;24.336;2023-05-07T04:57:40;12.00;68.60
28654;DHT22;24320;56.980;24.336;2023-05-07T05:00:08;12.30;66.80
28654;DHT22;24320;56.980;24.336;2023-05-07T05:02:36;12.40;65.10
28654;DHT22;24320;56.980;24.336;2023-05-07T05:05:03;12.50;64.50
28654;DHT22;24320;56.980;24.336;2023-05-07T05:07:30;12.50;63.60
28654;DHT22;24320;56.980;24.336;2023-05-07T05:09:57;12.30;64.10
28654;DHT22;24320;56.980;24.336;2023-05-07T05:12:24;12.50;63.60
28654;DHT22;24320;56.980;24.336;2023-05-07T05:14:51;12.60;63.60
28654;DHT22;24320;56.980;24.336;2023-05-07T05:17:18;12.70;63.10
28654;DHT22;24320;56.980;24.336;2023-05-07T05:19:45;12.90;63.40
28654;DHT22;24320;56.980;24.336;2023-05-07T05:22:12;13.30;61.70
28654;DHT22;24320;56.980;24.336;2023-05-07T05:24:40;13.80;60.50
28654;DHT22;24320;56.980;24.336;2023-05-07T05:27:06;13.90;59.60
28654;DHT22;24320;56.980;24.336;2023-05-07T05:29:33;13.60;59.70
28654;DHT22;24320;56.980;24.336;2023-05-07T05:32:00;13.60;59.20
28654;DHT22;24320;56.980;24.336;2023-05-07T05:34:27;13.50;59.60
28654;DHT22;24320;56.980;24.336;2023-05-07T05:36:54;13.60;60.80
28654;DHT22;24320;56.980;24.336;2023-05-07T05:39:22;14.00;59.80
28654;DHT22;24320;56.980;24.336;2023-05-07T05:41:49;14.30;57.90
28654;DHT22;24320;56.980;24.336;2023-05-07T05:44:16;14.40;57.50
28654;DHT22;24320;56.980;24.336;2023-05-07T05:46:43;14.30;57.70
28654;DHT22;24320;56.980;24.336;2023-05-07T05:49:10;14.20;57.00
28654;DHT22;24320;56.980;24.336;2023-05-07T05:51:37;14.10;56.70
28654;DHT22;24320;56.980;24.336;2023-05-07T05:54:05;14.10;57.50
28654;DHT22;24320;56.980;24.336;2023-05-07T05:56:32;14.30;57.60
28654;DHT22;24320;56.980;24.336;2023-05-07T05:58:59;14.30;57.80
28654;DHT22;24320;56.980;24.336;2023-05-07T06:01:26;14.30;57.60
28654;DHT22;24320;56.980;24.336;2023-05-07T06:03:53;14.10;57.20
28654;DHT22;24320;56.980;24.336;2023-05-07T06:06:20;14.00;56.80
28654;DHT22;24320;56.980;24.336;2023-05-07T06:08:47;13.80;57.00
28654;DHT22;24320;56.980;24.336;2023-05-07T06:11:14;13.70;58.00
28654;DHT22;24320;56.980;24.336;2023-05-07T06:13:41;13.70;58.40
28654;DHT22;24320;56.980;24.336;2023-05-07T06:16:08;14.00;59.60
28654;DHT22;24320;56.980;24.336;2023-05-07T06:18:35;14.10;58.00
28654;DHT22;24320;56.980;24.336;2023-05-07T06:21:03;14.10;57.20
28654;DHT22;24320;56.980;24.336;2023-05-07T06:23:30;13.80;56.90
28654;DHT22;24320;56.980;24.336;2023-05-07T06:25:57;13.30;57.10
28654;DHT22;24320;56.980;24.336;2023-05-07T06:28:24;13.10;57.40
28654;DHT22;24320;56.980;24.336;2023-05-07T06:30:51;12.80;57.60
28654;DHT22;24320;56.980;24.336;2023-05-07T06:33:18;12.60;58.40
28654;DHT22;24320;56.980;24.336;2023-05-07T06:35:46;12.70;59.30
28654;DHT22;24320;56.980;24.336;2023-05-07T06:38:13;13.00;58.80
28654;DHT22;24320;56.980;24.336;2023-05-07T06:40:40;13.30;58.60
28654;DHT22;24320;56.980;24.336;2023-05-07T06:43:08;13.60;57.00
28654;DHT22;24320;56.980;24.336;2023-05-07T06:45:35;13.90;55.50
28654;DHT22;24320;56.980;24.336;2023-05-07T06:48:03;13.90;56.10
28654;DHT22;24320;56.980;24.336;2023-05-07T06:50:30;14.20;54.50
28654;DHT22;24320;56.980;24.336;2023-05-07T06:52:57;14.40;54.90
28654;DHT22;24320;56.980;24.336;2023-05-07T06:55:24;14.50;54.00
28654;DHT22;24320;56.980;24.336;2023-05-07T06:57:51;14.50;52.50
28654;DHT22;24320;56.980;24.336;2023-05-07T07:00:18;14.60;54.50
28654;DHT22;24320;56.980;24.336;2023-05-07T07:02:45;14.60;50.80
28654;DHT22;24320;56.980;24.336;2023-05-07T07:05:12;14.40;48.90
28654;DHT22;24320;56.980;24.336;2023-05-07T07:07:39;14.40;49.50
28654;DHT22;24320;56.980;24.336;2023-05-07T07:10:07;14.30;50.90
28654;DHT22;24320;56.980;24.336;2023-05-07T07:12:34;14.20;49.70
28654;DHT22;24320;56.980;24.336;2023-05-07T07:15:01;14.20;49.10
28654;DHT22;24320;56.980;24.336;2023-05-07T07:17:29;14.20;48.40
28654;DHT22;24320;56.980;24.336;2023-05-07T07:19:57;14.20;48.90
28654;DHT22;24320;56.980;24.336;2023-05-07T07:22:28;14.60;53.40
28654;DHT22;24320;56.980;24.336;2023-05-07T07:24:56;15.30;48.80
28654;DHT22;24320;56.980;24.336;2023-05-07T07:27:23;15.10;44.70
28654;DHT22;24320;56.980;24.336;2023-05-07T07:29:51;14.80;47.30
28654;DHT22;24320;56.980;24.336;2023-05-07T07:32:18;14.60;46.80
28654;DHT22;24320;56.980;24.336;2023-05-07T07:34:45;14.50;45.60
28654;DHT22;24320;56.980;24.336;2023-05-07T07:37:13;14.40;46.10
28654;DHT22;24320;56.980;24.336;2023-05-07T07:39:39;14.60;47.50
28654;DHT22;24320;56.980;24.336;2023-05-07T07:42:07;14.90;46.60
28654;DHT22;24320;56.980;24.336;2023-05-07T07:44:34;15.10;47.80
28654;DHT22;24320;56.980;24.336;2023-05-07T07:47:01;15.30;52.30
28654;DHT22;24320;56.980;24.336;2023-05-07T07:49:28;15.30;44.60
28654;DHT22;24320;56.980;24.336;2023-05-07T07:51:55;15.10;44.60
28654;DHT22;24320;56.980;24.336;2023-05-07T07:54:25;14.60;44.70
28654;DHT22;24320;56.980;24.336;2023-05-07T07:56:52;14.20;45.30
28654;DHT22;24320;56.980;24.336;2023-05-07T07:59:19;14.20;48.30
28654;DHT22;24320;56.980;24.336;2023-05-07T08:01:46;14.10;46.90
28654;DHT22;24320;56.980;24.336;2023-05-07T08:04:19;14.00;46.60
28654;DHT22;24320;56.980;24.336;2023-05-07T08:06:46;13.80;46.60
28654;DHT22;24320;56.980;24.336;2023-05-07T08:09:13;13.60;47.60
28654;DHT22;24320;56.980;24.336;2023-05-07T08:11:41;13.70;46.40
28654;DHT22;24320;56.980;24.336;2023-05-07T08:14:08;13.50;47.10
28654;DHT22;24320;56.980;24.336;2023-05-07T08:16:35;13.30;48.00
28654;DHT22;24320;56.980;24.336;2023-05-07T08:19:02;13.40;48.70
28654;DHT22;24320;56.980;24.336;2023-05-07T08:21:29;13.40;48.40
28654;DHT22;24320;56.980;24.336;2023-05-07T08:24:00;13.40;51.30
28654;DHT22;24320;56.980;24.336;2023-05-07T08:26:27;13.40;47.30
28654;DHT22;24320;56.980;24.336;2023-05-07T08:28:54;13.10;49.40
28654;DHT22;24320;56.980;24.336;2023-05-07T08:31:21;13.10;50.20
28654;DHT22;24320;56.980;24.336;2023-05-07T08:33:48;13.30;53.20
28654;DHT22;24320;56.980;24.336;2023-05-07T08:36:15;13.40;51.10
28654;DHT22;24320;56.980;24.336;2023-05-07T08:38:42;13.70;59.10
28654;DHT22;24320;56.980;24.336;2023-05-07T08:41:10;13.80;52.80
28654;DHT22;24320;56.980;24.336;2023-05-07T08:43:38;13.70;56.00
28654;DHT22;24320;56.980;24.336;2023-05-07T08:46:09;13.80;57.00
28654;DHT22;24320;56.980;24.336;2023-05-07T08:48:37;13.90;52.90
28654;DHT22;24320;56.980;24.336;2023-05-07T08:51:05;13.90;51.80
28654;DHT22;24320;56.980;24.336;2023-05-07T08:53:33;13.80;46.80
28654;DHT22;24320;56.980;24.336;2023-05-07T08:56:00;13.60;55.80
28654;DHT22;24320;56.980;24.336;2023-05-07T08:58:27;13.60;55.60
28654;DHT22;24320;56.980;24.336;2023-05-07T09:00:54;13.60;53.50
28654;DHT22;24320;56.980;24.336;2023-05-07T09:03:21;13.60;49.90
28654;DHT22;24320;56.980;24.336;2023-05-07T09:05:49;13.40;50.00
28654;DHT22;24320;56.980;24.336;2023-05-07T09:08:16;13.20;48.60
28654;DHT22;24320;56.980;24.336;2023-05-07T09:10:44;13.10;50.20
28654;DHT22;24320;56.980;24.336;2023-05-07T09:13:12;13.10;48.80
28654;DHT22;24320;56.980;24.336;2023-05-07T09:15:41;13.00;50.30
28654;DHT22;24320;56.980;24.336;2023-05-07T09:18:08;13.00;51.60
28654;DHT22;24320;56.980;24.336;2023-05-07T09:20:37;13.10;50.80
28654;DHT22;24320;56.980;24.336;2023-05-07T09:23:04;13.20;48.40
28654;DHT22;24320;56.980;24.336;2023-05-07T09:25:35;13.00;48.30
28654;DHT22;24320;56.980;24.336;2023-05-07T09:28:03;12.90;52.70
28654;DHT22;24320;56.980;24.336;2023-05-07T09:30:31;12.90;49.90
28654;DHT22;24320;56.980;24.336;2023-05-07T09:32:59;12.90;49.40
28654;DHT22;24320;56.980;24.336;2023-05-07T09:35:27;12.90;49.90
28654;DHT22;24320;56.980;24.336;2023-05-07T09:37:58;12.90;49.00
28654;DHT22;24320;56.980;24.336;2023-05-07T09:40:30;12.80;49.40
28654;DHT22;24320;56.980;24.336;2023-05-07T09:43:09;12.80;50.40
28654;DHT22;24320;56.980;24.336;2023-05-07T09:45:37;13.00;57.40
28654;DHT22;24320;56.980;24.336;2023-05-07T09:48:06;13.30;58.10
28654;DHT22;24320;56.980;24.336;2023-05-07T09:50:43;13.50;52.60
28654;DHT22;24320;56.980;24.336;2023-05-07T09:53:13;13.40;48.40
28654;DHT22;24320;56.980;24.336;2023-05-07T09:55:41;13.30;48.60
28654;DHT22;24320;56.980;24.336;2023-05-07T09:58:09;13.30;51.40
28654;DHT22;24320;56.980;24.336;2023-05-07T10:00:39;13.40;51.40
28654;DHT22;24320;56.980;24.336;2023-05-07T10:03:08;13.40;50.90
28654;DHT22;24320;56.980;24.336;2023-05-07T10:05:40;13.40;54.70
28654;DHT22;24320;56.980;24.336;2023-05-07T10:08:08;13.40;48.30
28654;DHT22;24320;56.980;24.336;2023-05-07T10:10:36;13.20;48.20
28654;DHT22;24320;56.980;24.336;2023-05-07T10:13:04;13.10;48.50
28654;DHT22;24320;56.980;24.336;2023-05-07T10:15:37;13.00;49.70
28654;DHT22;24320;56.980;24.336;2023-05-07T10:18:06;13.00;48.00
28654;DHT22;24320;56.980;24.336;2023-05-07T10:20:34;13.10;51.70
28654;DHT22;24320;56.980;24.336;2023-05-07T10:23:04;13.20;54.20
28654;DHT22;24320;56.980;24.336;2023-05-07T10:25:33;13.40;50.90
28654;DHT22;24320;56.980;24.336;2023-05-07T10:28:06;13.50;48.10
28654;DHT22;24320;56.980;24.336;2023-05-07T10:33:17;13.30;47.60
28654;DHT22;24320;56.980;24.336;2023-05-07T10:35:47;13.20;48.40
28654;DHT22;24320;56.980;24.336;2023-05-07T10:38:15;13.30;49.70
28654;DHT22;24320;56.980;24.336;2023-05-07T10:40:42;13.50;49.30
28654;DHT22;24320;56.980;24.336;2023-05-07T10:43:13;13.50;50.60
28654;DHT22;24320;56.980;24.336;2023-05-07T10:45:40;13.60;48.90
28654;DHT22;24320;56.980;24.336;2023-05-07T10:48:15;13.60;48.90
28654;DHT22;24320;56.980;24.336;2023-05-07T10:50:45;13.60;48.50
28654;DHT22;24320;56.980;24.336;2023-05-07T10:53:21;13.50;46.00
28654;DHT22;24320;56.980;24.336;2023-05-07T10:58:38;13.40;49.10
28654;DHT22;24320;56.980;24.336;2023-05-07T11:01:05;13.40;48.00
28654;DHT22;24320;56.980;24.336;2023-05-07T11:03:32;13.40;50.00
28654;DHT22;24320;56.980;24.336;2023-05-07T11:06:15;13.40;47.40
28654;DHT22;24320;56.980;24.336;2023-05-07T11:08:58;13.40;47.10
28654;DHT22;24320;56.980;24.336;2023-05-07T11:11:57;13.20;46.70
28654;DHT22;24320;56.980;24.336;2023-05-07T11:14:57;13.20;47.30
28654;DHT22;24320;56.980;24.336;2023-05-07T11:17:24;13.30;47.30
28654;DHT22;24320;56.980;24.336;2023-05-07T11:19:53;13.30;48.50
28654;DHT22;24320;56.980;24.336;2023-05-07T11:25:07;13.20;49.40
28654;DHT22;24320;56.980;24.336;2023-05-07T11:27:34;13.10;49.80
28654;DHT22;24320;56.980;24.336;2023-05-07T11:30:01;13.20;50.90
28654;DHT22;24320;56.980;24.336;2023-05-07T11:32:30;13.30;49.70
28654;DHT22;24320;56.980;24.336;2023-05-07T11:34:59;13.20;49.40
28654;DHT22;24320;56.980;24.336;2023-05-07T11:37:27;13.10;49.70
28654;DHT22;24320;56.980;24.336;2023-05-07T11:40:09;13.10;49.90
28654;DHT22;24320;56.980;24.336;2023-05-07T11:42:39;13.00;50.90
28654;DHT22;24320;56.980;24.336;2023-05-07T11:45:07;12.90;51.20
28654;DHT22;24320;56.980;24.336;2023-05-07T11:47:34;12.90;50.80
28654;DHT22;24320;56.980;24.336;2023-05-07T11:50:06;12.80;50.90
28654;DHT22;24320;56.980;24.336;2023-05-07T11:52:35;12.70;51.60
28654;DHT22;24320;56.980;24.336;2023-05-07T11:55:03;12.80;51.30
28654;DHT22;24320;56.980;24.336;2023-05-07T11:57:33;12.70;51.00
28654;DHT22;24320;56.980;24.336;2023-05-07T12:00:04;12.60;51.30
28654;DHT22;24320;56.980;24.336;2023-05-07T12:02:33;12.50;51.60
28654;DHT22;24320;56.980;24.336;2023-05-07T12:05:02;12.60;51.40
28654;DHT22;24320;56.980;24.336;2023-05-07T12:07:29;12.60;50.70
28654;DHT22;24320;56.980;24.336;2023-05-07T12:10:06;12.40;51.00
28654;DHT22;24320;56.980;24.336;2023-05-07T12:12:45;12.40;52.80
28654;DHT22;24320;56.980;24.336;2023-05-07T12:15:16;12.40;52.30
28654;DHT22;24320;56.980;24.336;2023-05-07T12:17:43;12.40;52.20
28654;DHT22;24320;56.980;24.336;2023-05-07T12:20:11;12.40;52.90
28654;DHT22;24320;56.980;24.336;2023-05-07T12:22:38;12.50;52.00
28654;DHT22;24320;56.980;24.336;2023-05-07T12:25:07;12.50;52.60
28654;DHT22;24320;56.980;24.336;2023-05-07T12:27:37;12.70;53.00
28654;DHT22;24320;56.980;24.336;2023-05-07T12:30:10;12.70;51.10
28654;DHT22;24320;56.980;24.336;2023-05-07T12:32:37;12.70;52.10
28654;DHT22;24320;56.980;24.336;2023-05-07T12:35:06;12.60;52.60
28654;DHT22;24320;56.980;24.336;2023-05-07T12:37:35;12.60;52.70
28654;DHT22;24320;56.980;24.336;2023-05-07T12:40:13;12.60;52.20
28654;DHT22;24320;56.980;24.336;2023-05-07T12:42:42;12.70;52.10
28654;DHT22;24320;56.980;24.336;2023-05-07T12:45:13;12.70;52.60
28654;DHT22;24320;56.980;24.336;2023-05-07T12:47:47;12.70;52.30
28654;DHT22;24320;56.980;24.336;2023-05-07T12:50:15;12.60;53.10
28654;DHT22;24320;56.980;24.336;2023-05-07T12:52:45;12.80;51.70
28654;DHT22;24320;56.980;24.336;2023-05-07T12:55:17;12.60;52.00
28654;DHT22;24320;56.980;24.336;2023-05-07T12:57:49;12.50;52.00
28654;DHT22;24320;56.980;24.336;2023-05-07T13:00:17;12.50;52.20
28654;DHT22;24320;56.980;24.336;2023-05-07T13:02:45;12.50;52.40
28654;DHT22;24320;56.980;24.336;2023-05-07T13:05:12;12.40;53.00
28654;DHT22;24320;56.980;24.336;2023-05-07T13:07:40;12.40;53.70
28654;DHT22;24320;56.980;24.336;2023-05-07T13:10:08;12.50;53.00
28654;DHT22;24320;56.980;24.336;2023-05-07T13:12:35;12.50;54.00
28654;DHT22;24320;56.980;24.336;2023-05-07T13:15:03;12.60;53.10
28654;DHT22;24320;56.980;24.336;2023-05-07T13:17:29;12.50;53.60
28654;DHT22;24320;56.980;24.336;2023-05-07T13:19:58;12.50;52.90
28654;DHT22;24320;56.980;24.336;2023-05-07T13:22:25;12.40;54.20
28654;DHT22;24320;56.980;24.336;2023-05-07T13:24:52;12.30;53.00
28654;DHT22;24320;56.980;24.336;2023-05-07T13:27:19;12.20;53.10
28654;DHT22;24320;56.980;24.336;2023-05-07T13:29:47;12.00;54.00
28654;DHT22;24320;56.980;24.336;2023-05-07T13:32:14;12.00;55.00
28654;DHT22;24320;56.980;24.336;2023-05-07T13:34:41;12.10;55.30
28654;DHT22;24320;56.980;24.336;2023-05-07T13:37:08;12.30;53.80
28654;DHT22;24320;56.980;24.336;2023-05-07T13:39:37;12.40;53.90
28654;DHT22;24320;56.980;24.336;2023-05-07T13:42:04;12.30;54.40
28654;DHT22;24320;56.980;24.336;2023-05-07T13:44:31;12.20;54.90
28654;DHT22;24320;56.980;24.336;2023-05-07T13:46:58;12.10;55.70
28654;DHT22;24320;56.980;24.336;2023-05-07T13:49:25;12.10;54.20
28654;DHT22;24320;56.980;24.336;2023-05-07T13:51:52;11.90;54.70
28654;DHT22;24320;56.980;24.336;2023-05-07T13:54:19;11.80;55.90
28654;DHT22;24320;56.980;24.336;2023-05-07T13:56:46;11.80;55.70
28654;DHT22;24320;56.980;24.336;2023-05-07T13:59:14;11.80;55.90
28654;DHT22;24320;56.980;24.336;2023-05-07T14:01:41;11.80;55.70
28654;DHT22;24320;56.980;24.336;2023-05-07T14:04:08;11.90;55.90
28654;DHT22;24320;56.980;24.336;2023-05-07T14:06:35;11.80;56.20
28654;DHT22;24320;56.980;24.336;2023-05-07T14:09:02;11.80;56.20
28654;DHT22;24320;56.980;24.336;2023-05-07T14:11:29;11.80;56.50
28654;DHT22;24320;56.980;24.336;2023-05-07T14:13:58;11.80;56.80
28654;DHT22;24320;56.980;24.336;2023-05-07T14:16:25;11.70;56.70
28654;DHT22;24320;56.980;24.336;2023-05-07T14:18:53;11.70;57.20
28654;DHT22;24320;56.980;24.336;2023-05-07T14:21:23;11.70;57.60
28654;DHT22;24320;56.980;24.336;2023-05-07T14:23:50;11.70;57.50
28654;DHT22;24320;56.980;24.336;2023-05-07T14:26:17;11.70;58.00
28654;DHT22;24320;56.980;24.336;2023-05-07T14:28:44;11.70;57.20
28654;DHT22;24320;56.980;24.336;2023-05-07T14:31:13;11.80;56.70
28654;DHT22;24320;56.980;24.336;2023-05-07T14:33:40;11.90;55.60
28654;DHT22;24320;56.980;24.336;2023-05-07T14:36:08;12.00;55.40
28654;DHT22;24320;56.980;24.336;2023-05-07T14:38:35;12.00;55.40
28654;DHT22;24320;56.980;24.336;2023-05-07T14:41:02;12.00;55.50
28654;DHT22;24320;56.980;24.336;2023-05-07T14:43:29;12.00;54.90
28654;DHT22;24320;56.980;24.336;2023-05-07T14:45:56;11.90;55.10
28654;DHT22;24320;56.980;24.336;2023-05-07T14:48:23;11.80;55.90
28654;DHT22;24320;56.980;24.336;2023-05-07T14:50:50;11.70;56.10
28654;DHT22;24320;56.980;24.336;2023-05-07T14:53:17;11.70;56.80
28654;DHT22;24320;56.980;24.336;2023-05-07T14:55:44;11.60;56.30
28654;DHT22;24320;56.980;24.336;2023-05-07T14:58:11;11.60;56.40
28654;DHT22;24320;56.980;24.336;2023-05-07T15:00:38;11.60;57.10
28654;DHT22;24320;56.980;24.336;2023-05-07T15:03:07;11.60;56.90
28654;DHT22;24320;56.980;24.336;2023-05-07T15:05:35;11.60;58.00
28654;DHT22;24320;56.980;24.336;2023-05-07T15:08:02;11.70;57.90
28654;DHT22;24320;56.980;24.336;2023-05-07T15:10:29;11.60;57.00
28654;DHT22;24320;56.980;24.336;2023-05-07T15:12:56;11.60;56.40
28654;DHT22;24320;56.980;24.336;2023-05-07T15:15:23;11.50;57.10
28654;DHT22;24320;56.980;24.336;2023-05-07T15:17:50;11.50;57.30
28654;DHT22;24320;56.980;24.336;2023-05-07T15:20:17;11.40;56.90
28654;DHT22;24320;56.980;24.336;2023-05-07T15:22:44;11.40;58.60
28654;DHT22;24320;56.980;24.336;2023-05-07T15:25:12;11.40;59.50
28654;DHT22;24320;56.980;24.336;2023-05-07T15:27:40;11.30;59.70
28654;DHT22;24320;56.980;24.336;2023-05-07T15:30:07;11.20;59.60
28654;DHT22;24320;56.980;24.336;2023-05-07T15:32:37;11.20;60.20